Time;durP1;ratioP1;P1;durP2;ratioP2;P2;SDS_P1;SDS_P2;PMS_P1;PMS_P2;Temp;Humidity;BMP_temperature;BMP_pressure;BME280_temperature;BME280_humidity;BME280_pressure;Samples;Min_cycle;Max_cycle;Signal;HPM_P1;HPM_P2
2022/07/17 00:10:20;;;;;;;4.75;3.25;;;;;;;15.48;48.85;102042.50;671769;29;1426;-88
2022/07/17 00:10:43;;;;;;;5.10;3.00;;;;;;;15.47;48.63;102044.25;671060;29;1839;-88
2022/07/17 00:11:05;;;;;;;4.60;2.80;;;;;;;15.47;48.74;102033.75;668897;29;1363;-87
2022/07/17 00:11:28;;;;;;;4.53;2.90;;;;;;;15.49;48.81;102052.22;665774;29;1525;-88
2022/07/17 00:11:49;;;;;;;5.38;3.08;;;;;;;15.46;48.91;102046.84;669033;29;1414;-88
2022/07/17 00:12:11;;;;;;;5.50;3.30;;;;;;;15.41;48.94;102038.81;670333;29;1359;-88
2022/07/17 00:12:33;;;;;;;4.35;3.13;;;;;;;15.40;49.02;102049.28;665480;29;1888;-87
2022/07/17 00:12:55;;;;;;;4.05;2.90;;;;;;;15.39;49.05;102047.50;664486;29;1611;-87
2022/07/17 00:13:18;;;;;;;5.85;3.00;;;;;;;15.38;49.07;102049.28;663767;29;1274;-88
2022/07/17 00:13:39;;;;;;;7.00;3.30;;;;;;;15.34;49.14;102045.66;666617;29;1790;-88
2022/07/17 00:14:02;;;;;;;6.50;3.20;;;;;;;15.33;49.13;102045.59;669401;29;1472;-87
2022/07/17 00:14:23;;;;;;;5.93;3.10;;;;;;;15.30;49.30;102041.13;671818;29;1324;-88
2022/07/17 00:14:45;;;;;;;6.10;3.10;;;;;;;15.27;49.26;102043.69;670362;29;1716;-88
2022/07/17 00:15:07;;;;;;;5.93;3.35;;;;;;;15.25;49.33;102040.13;666164;29;1541;-89
2022/07/17 00:15:29;;;;;;;4.47;3.40;;;;;;;15.23;49.68;102038.31;666831;29;1427;-88
2022/07/17 00:15:50;;;;;;;5.15;3.33;;;;;;;15.22;49.50;102037.41;666536;29;1887;-88
2022/07/17 00:18:46;;;;;;;4.40;3.30;;;;;;;15.10;50.00;102047.53;673441;29;1446;-88
2022/07/17 00:19:10;;;;;;;5.40;3.10;;;;;;;15.08;49.81;102045.72;662664;29;1487;-88
2022/07/17 00:19:37;;;;;;;6.25;3.15;;;;;;;15.06;50.11;102042.19;656683;30;1435;-88
2022/07/17 00:19:58;;;;;;;6.20;3.40;;;;;;;15.07;50.01;102049.22;653215;30;1419;-88
2022/07/17 00:20:24;;;;;;;4.78;3.47;;;;;;;15.10;50.13;102047.53;663728;29;1642;-88
2022/07/17 00:20:47;;;;;;;4.85;3.35;;;;;;;15.05;50.28;102048.28;656125;30;1897;-88
2022/07/17 00:21:10;;;;;;;4.22;3.10;;;;;;;15.06;50.07;102052.69;654788;30;1452;-88
2022/07/17 00:21:31;;;;;;;6.60;3.50;;;;;;;15.05;50.35;102050.91;660423;29;1730;-87
2022/07/17 00:21:53;;;;;;;7.65;3.42;;;;;;;15.07;50.31;102058.84;666168;29;1893;-88
2022/07/17 00:22:17;;;;;;;6.28;3.13;;;;;;;15.04;50.44;102045.59;667151;29;1352;-88
2022/07/17 00:22:42;;;;;;;6.00;3.10;;;;;;;15.07;50.43;102053.59;669396;29;1693;-88
2022/07/17 00:23:07;;;;;;;5.28;3.08;;;;;;;15.03;50.23;102049.97;668935;29;1391;-87
2022/07/17 00:27:22;;;;;;;7.40;3.25;;;;;;;14.97;50.86;102047.16;673494;29;1404;-88
2022/07/17 00:27:44;;;;;;;4.30;3.10;;;;;;;14.94;50.74;102044.44;673823;29;1630;-88
2022/07/17 00:28:05;;;;;;;5.47;3.22;;;;;;;14.99;50.71;102045.47;671251;29;1555;-88
2022/07/17 00:28:28;;;;;;;5.45;3.28;;;;;;;14.99;50.91;102048.09;668993;29;1424;-88
2022/07/17 00:28:50;;;;;;;5.05;3.38;;;;;;;14.99;50.69;102044.59;666503;29;1314;-88
2022/07/17 00:29:13;;;;;;;5.55;3.35;;;;;;;15.00;50.98;102044.63;667559;29;1282;-88
2022/07/17 00:29:34;;;;;;;8.35;3.42;;;;;;;15.01;50.75;102045.50;669099;29;1530;-88
2022/07/17 00:29:57;;;;;;;8.10;3.40;;;;;;;15.03;50.57;102049.06;667291;29;826;-88
2022/07/17 00:30:19;;;;;;;7.47;3.30;;;;;;;15.05;50.58;102050.00;673927;29;1168;-88
2022/07/17 00:30:40;;;;;;;4.47;3.28;;;;;;;15.03;50.76;102049.97;670262;29;1891;-88
2022/07/17 00:31:01;;;;;;;4.72;3.20;;;;;;;15.01;50.51;102045.50;667047;29;1316;-88
2022/07/17 00:31:23;;;;;;;4.60;3.05;;;;;;;15.01;50.65;102037.63;666195;29;1347;-88
2022/07/17 00:31:45;;;;;;;5.55;2.95;;;;;;;15.04;50.72;102046.50;666457;29;1531;-87
2022/07/17 00:32:07;;;;;;;6.40;3.20;;;;;;;15.04;50.78;102049.13;669387;29;1197;-88
2022/07/17 00:32:28;;;;;;;6.00;3.35;;;;;;;15.03;50.52;102041.19;671596;29;1775;-88
2022/07/17 00:32:50;;;;;;;5.68;3.13;;;;;;;15.07;50.75;102051.84;667048;29;1263;-87
2022/07/17 00:33:11;;;;;;;4.85;2.75;;;;;;;15.06;50.88;102044.81;666338;29;1764;-88
2022/07/17 00:33:32;;;;;;;4.70;2.60;;;;;;;15.04;50.82;102045.59;669221;29;1572;-88
2022/07/17 00:33:53;;;;;;;4.18;2.70;;;;;;;15.06;50.58;102047.44;669209;29;1149;-88
2022/07/17 00:34:14;;;;;;;4.50;2.75;;;;;;;15.10;50.77;102050.16;668368;29;1195;-87
2022/07/17 00:34:36;;;;;;;4.35;2.53;;;;;;;15.11;50.80;102044.06;665766;29;1999;-88
2022/07/17 00:34:58;;;;;;;5.40;2.55;;;;;;;15.11;50.72;102044.06;667142;29;1216;-88
2022/07/17 00:35:19;;;;;;;5.03;2.50;;;;;;;15.10;50.63;102048.41;666333;29;1301;-88
2022/07/17 00:35:40;;;;;;;5.07;2.72;;;;;;;15.09;50.67;102041.38;670129;29;1327;-88
2022/07/17 00:36:08;;;;;;;4.45;2.75;;;;;;;15.14;50.56;102049.41;667042;29;1784;-87
2022/07/17 00:36:30;;;;;;;4.20;2.55;;;;;;;15.14;50.84;102049.41;668745;29;1567;-87
2022/07/17 00:36:52;;;;;;;5.50;2.50;;;;;;;15.11;50.58;102038.81;671723;29;1425;-88
2022/07/17 00:51:54;;;;;;;5.00;2.92;;;;;;;14.70;51.58;102041.94;675058;29;1460;-88
2022/07/17 00:52:17;;;;;;;3.00;2.50;;;;;;;14.66;51.43;102044.50;672716;29;2027;-88
2022/07/17 00:52:39;;;;;;;4.07;2.70;;;;;;;14.63;51.34;102040.88;667664;29;1678;-88
2022/07/17 00:53:05;;;;;;;5.35;2.88;;;;;;;14.61;51.67;102038.19;668908;29;1454;-88
2022/07/17 00:53:32;;;;;;;6.40;3.00;;;;;;;14.59;51.54;102038.97;664216;29;1402;-88
2022/07/17 00:53:57;;;;;;;5.25;3.10;;;;;;;14.58;51.84;102042.44;670613;29;1216;-88
2022/07/17 00:54:22;;;;;;;4.60;2.90;;;;;;;14.53;51.71;102037.94;669948;29;1512;-88
2022/07/17 00:54:46;;;;;;;4.90;2.80;;;;;;;14.53;51.83;102035.31;664567;29;1586;-88
2022/07/17 00:55:11;;;;;;;5.53;2.70;;;;;;;14.57;51.79;102041.53;667574;29;1230;-88
2022/07/17 00:55:36;;;;;;;4.75;2.95;;;;;;;14.49;51.82;102036.06;667131;29;823;-88
2022/07/17 00:56:01;;;;;;;5.35;3.13;;;;;;;14.47;51.61;102040.38;669827;29;1668;-88
2022/07/17 00:56:23;;;;;;;6.28;3.08;;;;;;;14.51;51.76;102044.88;664338;29;1344;-88
2022/07/17 00:56:47;;;;;;;6.60;3.28;;;;;;;14.46;52.08;102038.59;666753;29;1543;-87
2022/07/17 00:57:13;;;;;;;6.60;3.40;;;;;;;14.46;52.05;102038.59;669325;29;1919;-87
2022/07/17 00:57:39;;;;;;;7.15;3.30;;;;;;;14.42;52.24;102036.72;667209;29;1474;-88
2022/07/17 00:58:06;;;;;;;5.80;2.88;;;;;;;14.45;52.32;102039.41;669874;29;1298;-88
2022/07/17 00:58:30;;;;;;;6.00;2.90;;;;;;;14.43;52.47;102041.09;671469;29;1389;-88
2022/07/17 00:58:53;;;;;;;5.55;2.80;;;;;;;14.45;52.23;102044.66;666492;29;1270;-88
2022/07/17 00:59:16;;;;;;;5.22;2.72;;;;;;;14.41;52.15;102041.91;667830;29;1192;-88
2022/07/17 00:59:40;;;;;;;5.13;2.83;;;;;;;14.39;52.18;102032.25;667575;29;1549;-88
2022/07/17 01:00:09;;;;;;;5.40;2.83;;;;;;;14.43;52.17;102049.00;663885;29;1197;-88
2022/07/17 01:00:32;;;;;;;4.80;2.70;;;;;;;14.35;52.14;102040.88;668296;29;2122;-88
2022/07/17 01:00:55;;;;;;;6.57;2.80;;;;;;;14.37;52.11;102046.16;669060;29;1417;-87
2022/07/17 01:01:18;;;;;;;6.10;2.80;;;;;;;14.39;52.25;102047.13;669364;29;1052;-88
2022/07/17 01:01:39;;;;;;;7.38;2.97;;;;;;;14.39;52.52;102039.25;666788;29;1112;-88
2022/07/17 01:02:11;;;;;;;6.50;2.95;;;;;;;14.39;52.76;102047.13;663838;29;1213;-88
2022/07/17 01:02:33;;;;;;;5.30;2.80;;;;;;;14.37;52.57;102043.53;666921;29;1990;-88
2022/07/17 01:02:55;;;;;;;5.80;2.90;;;;;;;14.34;52.51;102032.94;666982;29;1414;-88
2022/07/17 01:03:18;;;;;;;5.95;3.00;;;;;;;14.33;52.65;102036.41;668449;29;1121;-88
2022/07/17 01:03:40;;;;;;;5.68;3.00;;;;;;;14.36;52.49;102039.13;666920;29;1397;-89
2022/07/17 01:04:01;;;;;;;5.45;2.80;;;;;;;14.36;52.58;102047.00;667026;29;1109;-88
2022/07/17 01:05:46;;;;;;;6.38;3.30;;;;;;;14.30;52.69;102039.81;669071;29;1700;-88
2022/07/17 01:06:09;;;;;;;6.03;3.10;;;;;;;14.30;52.72;102046.78;666681;29;1390;-88
2022/07/17 01:06:31;;;;;;;3.78;2.70;;;;;;;14.29;52.55;102042.38;668459;29;1703;-88
2022/07/17 01:06:52;;;;;;;3.75;2.80;;;;;;;14.29;52.70;102047.63;669088;29;1606;-88
2022/07/17 01:07:13;;;;;;;4.47;2.75;;;;;;;14.28;52.68;102052.03;665980;29;1366;-88
2022/07/17 01:07:35;;;;;;;5.60;2.80;;;;;;;14.29;52.73;102050.25;665240;29;1709;-88
2022/07/17 01:07:57;;;;;;;6.13;2.80;;;;;;;14.27;52.46;102046.72;665534;29;1420;-87
2022/07/17 01:08:19;;;;;;;7.55;2.90;;;;;;;14.24;52.87;102045.78;667949;29;1447;-88
2022/07/17 01:08:41;;;;;;;7.38;2.97;;;;;;;14.27;52.88;102051.97;664745;29;1500;-88
2022/07/17 01:09:03;;;;;;;7.22;2.90;;;;;;;14.27;53.04;102058.13;669010;29;1431;-88
2022/07/17 01:09:29;;;;;;;5.07;2.83;;;;;;;14.28;52.79;102065.16;670935;29;1472;-87
2022/07/17 01:09:50;;;;;;;3.40;2.70;;;;;;;14.23;52.91;102050.97;673598;29;1833;-87
2022/07/17 01:10:13;;;;;;;3.17;2.72;;;;;;;14.24;52.70;102058.91;670088;29;1343;-88
2022/07/17 01:10:35;;;;;;;3.40;2.85;;;;;;;14.21;52.84;102048.28;666913;29;1497;-87
2022/07/17 01:10:57;;;;;;;4.10;2.80;;;;;;;14.24;52.93;102061.53;670458;29;1760;-88
2022/07/17 01:11:18;;;;;;;3.55;2.50;;;;;;;14.23;52.89;102056.22;668713;29;1454;-88
2022/07/17 01:11:40;;;;;;;3.88;2.55;;;;;;;14.22;53.03;102054.44;667865;29;1657;-88
2022/07/17 01:12:02;;;;;;;4.63;2.65;;;;;;;14.21;52.79;102057.91;663875;29;1537;-88
2022/07/17 01:12:25;;;;;;;4.93;2.70;;;;;;;14.20;52.92;102053.50;665527;29;1505;-88
2022/07/17 01:12:48;;;;;;;4.60;2.65;;;;;;;14.18;52.95;102052.53;668563;29;1981;-88
2022/07/17 01:13:10;;;;;;;4.45;2.67;;;;;;;14.20;53.11;102054.38;669108;29;1578;-88
2022/07/17 01:31:23;;;;;;;4.35;2.70;;;;;;;14.13;53.10;102049.75;671704;29;1350;-87
2022/07/17 01:31:45;;;;;;;5.75;2.78;;;;;;;14.11;53.38;102057.59;671275;29;1911;-88
2022/07/17 01:32:06;;;;;;;5.63;2.92;;;;;;;14.08;53.52;102044.31;671388;29;1322;-88
2022/07/17 01:32:36;;;;;;;7.20;3.38;;;;;;;14.14;53.24;102053.28;667025;29;1279;-87
2022/07/17 01:32:58;;;;;;;5.57;3.00;;;;;;;14.15;53.70;102057.69;671558;29;1357;-88
2022/07/17 01:33:20;;;;;;;5.18;3.00;;;;;;;14.16;53.36;102059.47;670378;29;1110;-88
2022/07/17 01:33:42;;;;;;;5.68;3.10;;;;;;;14.10;53.54;102054.88;666308;29;1134;-87
2022/07/17 01:34:06;;;;;;;5.38;3.10;;;;;;;14.12;53.66;102045.34;667423;29;1355;-88
2022/07/17 01:34:27;;;;;;;5.88;3.20;;;;;;;14.12;53.63;102050.59;669101;29;1256;-87
2022/07/17 01:34:48;;;;;;;4.93;3.10;;;;;;;14.12;53.57;102045.34;668140;29;1623;-88
2022/07/17 01:35:12;;;;;;;5.80;3.15;;;;;;;14.14;53.72;102051.56;670199;29;1110;-88
2022/07/17 01:35:33;;;;;;;5.63;3.08;;;;;;;14.14;53.52;102046.31;667519;29;1881;-88
2022/07/17 01:35:54;;;;;;;6.47;3.25;;;;;;;14.12;53.71;102045.34;667443;29;1594;-88
2022/07/17 01:36:15;;;;;;;6.40;3.40;;;;;;;14.13;53.66;102049.75;671264;29;1445;-87
2022/07/17 01:36:37;;;;;;;7.28;3.25;;;;;;;14.11;53.75;102043.56;668609;29;1957;-87
2022/07/17 01:36:59;;;;;;;5.43;2.92;;;;;;;14.15;53.65;102047.19;669581;29;1113;-87
2022/07/17 01:37:21;;;;;;;4.90;2.50;;;;;;;14.09;53.37;102042.59;669001;29;1947;-88
2022/07/17 01:37:45;;;;;;;3.83;2.67;;;;;;;14.13;53.54;102044.50;669888;29;1413;-88
2022/07/17 01:38:08;;;;;;;4.47;3.00;;;;;;;14.11;53.76;102040.94;669884;29;1288;-87
2022/07/17 01:38:30;;;;;;;5.10;3.17;;;;;;;14.13;53.69;102052.38;666470;29;1715;-88
2022/07/17 01:38:52;;;;;;;4.43;3.30;;;;;;;14.10;53.64;102039.13;672277;29;1622;-88
2022/07/17 01:39:13;;;;;;;3.95;3.15;;;;;;;14.16;53.59;102054.22;672179;29;1357;-87
2022/07/17 01:39:53;;;;;;;3.75;3.20;;;;;;;14.13;53.49;102044.50;672147;29;1404;-88
2022/07/17 01:40:16;;;;;;;3.70;2.80;;;;;;;14.10;53.59;102050.53;668821;29;1269;-87
2022/07/17 01:40:38;;;;;;;3.42;2.70;;;;;;;14.11;53.34;102056.69;666898;29;1258;-88
2022/07/17 01:41:00;;;;;;;4.80;2.80;;;;;;;14.10;53.21;102050.53;669875;29;1620;-87
2022/07/17 01:41:24;;;;;;;5.55;2.80;;;;;;;14.10;53.38;102060.13;669092;29;1359;-88
2022/07/17 01:41:45;;;;;;;6.10;3.03;;;;;;;14.03;53.50;102042.38;669947;29;1218;-87
2022/07/17 01:42:07;;;;;;;6.10;3.17;;;;;;;14.05;53.48;102045.94;666739;29;1147;-88
2022/07/17 01:42:28;;;;;;;5.35;3.30;;;;;;;14.05;53.36;102041.59;667294;29;1216;-88
2022/07/17 01:42:50;;;;;;;4.45;3.42;;;;;;;14.06;53.42;102047.72;667051;29;1304;-87
2022/07/17 01:43:12;;;;;;;4.68;3.40;;;;;;;14.06;53.66;102045.09;668510;29;1426;-87
2022/07/17 01:43:33;;;;;;;4.82;3.30;;;;;;;14.01;53.75;102038.81;669605;29;1500;-88
2022/07/17 01:43:55;;;;;;;4.40;2.90;;;;;;;14.05;53.65;102043.31;674901;29;1235;-88
2022/07/17 01:44:16;;;;;;;7.00;3.13;;;;;;;14.03;53.74;102042.38;671176;29;1384;-87
2022/07/17 01:44:38;;;;;;;7.47;3.10;;;;;;;14.03;53.79;102040.66;672417;29;1330;-88
2022/07/17 01:45:00;;;;;;;8.02;3.28;;;;;;;14.03;53.79;102037.13;669351;29;1225;-88
2022/07/17 01:45:21;;;;;;;6.95;3.35;;;;;;;14.01;54.25;102033.56;670170;29;1378;-87
2022/07/17 01:45:42;;;;;;;7.05;3.70;;;;;;;14.03;54.07;102040.66;665993;29;793;-88
2022/07/17 01:46:03;;;;;;;6.20;3.50;;;;;;;14.05;53.83;102051.19;664799;29;1170;-87
2022/07/17 01:46:26;;;;;;;5.75;3.40;;;;;;;14.01;54.06;102038.81;672523;29;1176;-88
2022/07/17 01:46:47;;;;;;;5.78;3.17;;;;;;;14.04;53.88;102044.16;669463;29;1530;-87
2022/07/17 01:47:09;;;;;;;6.63;3.38;;;;;;;14.03;53.98;102039.75;666005;29;1543;-87
2022/07/17 01:47:30;;;;;;;4.90;3.20;;;;;;;14.04;53.98;102044.16;662602;29;1209;-87
2022/07/17 01:47:51;;;;;;;5.68;3.20;;;;;;;14.06;53.98;102046.00;667025;29;2113;-87
2022/07/17 01:48:24;;;;;;;5.75;3.20;;;;;;;14.05;53.93;102041.59;668214;29;1347;-87
2022/07/17 01:48:45;;;;;;;8.02;3.22;;;;;;;14.01;53.94;102037.06;667231;29;1183;-87
2022/07/17 01:49:06;;;;;;;7.72;3.20;;;;;;;14.05;53.99;102045.94;664834;29;1321;-88
2022/07/17 01:49:28;;;;;;;7.90;3.40;;;;;;;14.03;53.92;102042.38;666923;29;1121;-87
2022/07/17 01:49:53;;;;;;;6.55;3.20;;;;;;;14.02;54.18;102037.97;663331;29;1508;-88
2022/07/17 01:50:15;;;;;;;5.30;3.08;;;;;;;14.03;53.80;102047.63;668397;29;1785;-87
2022/07/17 01:50:37;;;;;;;4.15;3.10;;;;;;;14.02;53.83;102041.47;667916;29;1533;-87
2022/07/17 01:50:58;;;;;;;4.32;3.20;;;;;;;14.00;53.68;102045.78;667478;29;775;-87
2022/07/17 01:51:21;;;;;;;5.03;3.30;;;;;;;13.97;54.01;102040.44;666557;29;1403;-88
2022/07/17 01:51:44;;;;;;;5.25;3.30;;;;;;;13.97;53.67;102043.06;669393;29;1685;-88
2022/07/17 01:52:06;;;;;;;5.35;3.03;;;;;;;13.96;53.72;102049.16;671382;29;1393;-87
2022/07/17 01:52:27;;;;;;;5.28;3.20;;;;;;;13.94;53.66;102051.72;671597;29;1611;-88
2022/07/17 01:52:48;;;;;;;4.60;3.00;;;;;;;13.86;53.75;102045.31;669268;29;2015;-87
2022/07/17 01:53:10;;;;;;;4.25;2.97;;;;;;;13.88;54.07;102048.00;665135;29;1371;-88
2022/07/17 01:53:32;;;;;;;3.53;2.90;;;;;;;13.88;54.16;102050.63;667814;29;1124;-88
2022/07/17 01:53:55;;;;;;;4.20;3.00;;;;;;;13.85;53.97;102048.78;668829;29;1359;-88
2022/07/17 01:54:18;;;;;;;5.40;3.10;;;;;;;13.78;53.95;102041.53;672766;29;1269;-88
2022/07/17 01:54:41;;;;;;;6.00;3.20;;;;;;;13.81;54.39;102052.13;672590;29;1373;-87
2022/07/17 01:55:04;;;;;;;5.72;3.20;;;;;;;13.73;54.21;102049.25;669345;29;1590;-88
2022/07/17 01:55:26;;;;;;;5.50;3.30;;;;;;;13.73;54.48;102044.00;667429;29;859;-88
2022/07/17 01:55:48;;;;;;;4.68;3.10;;;;;;;13.69;54.40;102037.75;669073;29;2012;-88
2022/07/17 01:56:09;;;;;;;5.25;3.15;;;;;;;13.70;54.40;102044.78;667326;29;1213;-87
2022/07/17 01:56:31;;;;;;;4.88;3.17;;;;;;;13.69;54.45;102042.09;664929;29;1213;-88
2022/07/17 01:56:52;;;;;;;7.22;3.45;;;;;;;13.69;54.63;102048.25;667086;29;2165;-88
2022/07/17 01:57:15;;;;;;;9.43;3.80;;;;;;;13.73;54.82;102053.59;667893;29;1911;-88
2022/07/17 01:57:37;;;;;;;9.32;3.70;;;;;;;13.73;54.85;102048.34;669924;29;1474;-87
2022/07/17 01:57:59;;;;;;;7.03;3.45;;;;;;;13.73;54.68;102048.34;672311;29;1637;-88
2022/07/17 01:58:21;;;;;;;6.47;3.60;;;;;;;13.74;54.88;102045.78;668802;29;1334;-88
2022/07/17 01:58:43;;;;;;;6.70;3.80;;;;;;;13.72;54.77;102044.84;672220;29;1588;-87
2022/07/17 01:59:04;;;;;;;6.57;4.07;;;;;;;13.74;55.11;102045.78;674483;29;1451;-88
2022/07/17 01:59:26;;;;;;;5.57;3.67;;;;;;;13.73;54.50;102043.09;674080;29;1515;-87
2022/07/17 01:59:48;;;;;;;5.18;3.47;;;;;;;13.74;54.85;102039.63;669811;29;1447;-87
2022/07/17 02:00:14;;;;;;;4.28;2.90;;;;;;;13.71;54.74;102041.31;674345;29;1410;-88
2022/07/17 02:00:37;;;;;;;4.28;2.83;;;;;;;13.71;54.88;102038.69;670420;29;1278;-87
2022/07/17 02:00:57;;;;;;;4.72;3.10;;;;;;;13.71;54.66;102041.31;667168;29;1713;-88
2022/07/17 02:01:18;;;;;;;6.03;3.50;;;;;;;13.73;54.68;102044.00;666555;29;1053;-87
2022/07/17 02:01:40;;;;;;;5.93;3.45;;;;;;;13.69;54.75;102034.22;666963;29;1974;-88
2022/07/17 02:02:02;;;;;;;7.95;3.42;;;;;;;13.75;54.65;102049.31;669825;29;1208;-88
2022/07/17 02:02:24;;;;;;;9.02;3.30;;;;;;;13.75;54.70;102051.94;668801;29;1201;-87
2022/07/17 02:02:45;;;;;;;8.88;3.40;;;;;;;13.73;54.53;102048.34;662096;29;1954;-87
2022/07/17 02:03:07;;;;;;;5.15;3.20;;;;;;;13.75;54.48;102046.69;668418;29;1288;-88
2022/07/17 02:03:28;;;;;;;5.00;3.20;;;;;;;13.74;54.26;102050.13;669898;29;1172;-87
2022/07/17 02:03:49;;;;;;;4.90;3.00;;;;;;;13.71;54.38;102049.19;667094;29;1153;-88
2022/07/17 02:04:11;;;;;;;6.03;3.08;;;;;;;13.65;54.22;102046.34;668036;29;1187;-88
2022/07/17 02:04:35;;;;;;;6.15;3.03;;;;;;;13.68;54.49;102046.47;667001;29;2006;-87
2022/07/17 02:04:57;;;;;;;5.90;3.03;;;;;;;13.67;54.60;102043.78;665243;29;1285;-87
2022/07/17 02:05:17;;;;;;;5.97;3.20;;;;;;;13.66;54.57;102037.63;672677;29;1484;-87
2022/07/17 02:05:39;;;;;;;5.78;3.28;;;;;;;13.67;54.43;102047.31;669941;29;1304;-88
2022/07/17 02:06:02;;;;;;;5.90;3.45;;;;;;;13.61;54.20;102039.22;666441;29;1397;-88
2022/07/17 02:06:25;;;;;;;4.60;3.30;;;;;;;13.59;54.58;102040.91;670904;29;1327;-87
2022/07/17 02:06:46;;;;;;;5.60;3.50;;;;;;;13.58;54.49;102036.47;669864;29;895;-88
2022/07/17 02:07:08;;;;;;;5.75;3.20;;;;;;;13.59;54.80;102040.91;667604;29;1160;-87
2022/07/17 02:07:31;;;;;;;5.15;3.03;;;;;;;13.54;54.63;102024.97;667504;29;1193;-88
2022/07/17 02:07:55;;;;;;;4.82;3.10;;;;;;;13.56;54.77;102036.44;666893;29;1220;-88
2022/07/17 02:08:16;;;;;;;5.13;3.05;;;;;;;13.54;55.12;102045.06;666219;29;1135;-87
2022/07/17 02:08:39;;;;;;;5.75;2.95;;;;;;;13.54;54.89;102030.22;667026;29;1578;-88
2022/07/17 02:09:00;;;;;;;5.45;3.00;;;;;;;13.53;54.84;102035.41;669922;29;1062;-87
2022/07/17 02:09:23;;;;;;;5.13;2.95;;;;;;;13.52;55.21;102033.66;669091;29;1305;-88
2022/07/17 02:09:45;;;;;;;5.90;3.00;;;;;;;13.49;55.01;102034.41;668645;29;1594;-88
2022/07/17 02:10:09;;;;;;;6.40;3.20;;;;;;;13.50;54.96;102043.16;669581;29;1140;-87
2022/07/17 02:10:30;;;;;;;5.25;3.30;;;;;;;13.47;54.87;102032.56;669124;29;1510;-87
2022/07/17 02:10:53;;;;;;;5.10;3.28;;;;;;;13.47;55.01;102035.19;674524;29;1564;-87
2022/07/17 02:11:16;;;;;;;3.92;3.03;;;;;;;13.48;55.04;102047.47;669328;29;1425;-87
2022/07/17 02:11:38;;;;;;;6.72;3.20;;;;;;;13.43;55.16;102040.34;672178;29;1525;-87
2022/07/17 02:11:59;;;;;;;6.80;3.10;;;;;;;13.46;55.24;102036.91;664696;29;1397;-87
2022/07/17 02:12:21;;;;;;;6.18;2.92;;;;;;;13.49;55.22;102042.28;667797;29;1345;-88
2022/07/17 02:12:45;;;;;;;6.07;2.90;;;;;;;13.44;55.21;102035.97;669408;29;1764;-88
2022/07/17 02:13:07;;;;;;;5.93;3.00;;;;;;;13.42;55.14;102033.28;666849;29;1314;-88
2022/07/17 02:13:29;;;;;;;5.63;2.95;;;;;;;13.47;55.11;102045.69;664202;29;1197;-88
2022/07/17 02:13:51;;;;;;;6.60;3.00;;;;;;;13.45;55.22;102042.13;664476;29;1754;-87
2022/07/17 02:20:11;;;;;;;3.40;2.80;;;;;;;13.35;54.97;102031.31;678537;29;1377;-87
2022/07/17 02:20:36;;;;;;;3.75;2.90;;;;;;;13.36;55.54;102038.31;669600;29;1684;-88
2022/07/17 02:20:57;;;;;;;7.32;3.30;;;;;;;13.37;55.29;102032.25;666748;29;1410;-87
2022/07/17 02:21:18;;;;;;;8.23;3.40;;;;;;;13.35;55.64;102028.69;667035;29;1385;-88
2022/07/17 02:21:39;;;;;;;8.48;3.35;;;;;;;13.33;55.39;102027.72;664769;29;1979;-88
2022/07/17 02:22:03;;;;;;;6.22;3.30;;;;;;;13.36;55.27;102037.41;669306;29;1525;-87
2022/07/17 02:22:26;;;;;;;4.82;3.00;;;;;;;13.30;55.67;102025.84;668200;29;1418;-88
2022/07/17 02:22:49;;;;;;;3.92;2.95;;;;;;;13.33;55.44;102032.06;668124;29;1538;-87
2022/07/17 02:23:10;;;;;;;3.60;2.70;;;;;;;13.37;55.62;102039.19;669122;29;1433;-87
2022/07/17 02:23:32;;;;;;;5.13;2.90;;;;;;;13.35;55.62;102033.94;668745;29;1765;-88
2022/07/17 02:23:55;;;;;;;4.88;2.72;;;;;;;13.37;55.60;102034.88;665741;29;1506;-87
2022/07/17 02:24:16;;;;;;;4.28;2.92;;;;;;;13.34;55.66;102029.50;666667;29;1324;-88
2022/07/17 02:24:40;;;;;;;4.00;3.15;;;;;;;13.33;55.93;102032.06;666924;29;1959;-87
2022/07/17 02:25:01;;;;;;;4.38;3.22;;;;;;;13.36;55.81;102037.41;667686;29;1742;-88
2022/07/17 02:25:24;;;;;;;5.20;3.30;;;;;;;13.33;55.68;102029.47;674152;29;1351;-87
2022/07/17 02:25:48;;;;;;;5.22;3.20;;;;;;;13.33;55.88;102032.94;670598;29;1642;-88
2022/07/17 02:26:09;;;;;;;7.38;3.10;;;;;;;13.34;55.82;102041.72;665688;29;1492;-88
2022/07/17 02:26:31;;;;;;;7.50;3.13;;;;;;;13.28;55.98;102024.03;666392;29;1416;-88
2022/07/17 02:26:52;;;;;;;6.97;3.10;;;;;;;13.29;55.82;102039.81;665947;29;1961;-88
2022/07/17 02:27:14;;;;;;;6.50;3.20;;;;;;;13.27;55.79;102035.38;666448;29;1368;-88
2022/07/17 02:27:35;;;;;;;5.65;3.10;;;;;;;13.31;55.99;102039.88;668117;29;1533;-87
2022/07/17 02:27:57;;;;;;;4.80;3.00;;;;;;;13.27;56.07;102038.00;665954;29;1812;-88
2022/07/17 02:28:19;;;;;;;3.70;3.03;;;;;;;13.24;55.94;102023.03;666419;29;1528;-88
2022/07/17 02:28:40;;;;;;;4.70;3.15;;;;;;;13.29;55.89;102036.31;668412;29;1676;-87
2022/07/17 02:29:01;;;;;;;4.72;2.97;;;;;;;13.27;56.17;102032.75;664776;29;781;-88
2022/07/17 02:29:23;;;;;;;5.45;3.00;;;;;;;13.30;55.88;102040.72;666699;29;1266;-87
2022/07/17 02:29:46;;;;;;;6.68;3.00;;;;;;;13.27;56.16;102033.63;669273;29;2077;-87
2022/07/17 02:30:14;;;;;;;6.70;3.25;;;;;;;13.28;55.97;102039.78;672139;29;1264;-87
2022/07/17 02:30:36;;;;;;;4.80;3.03;;;;;;;13.33;56.04;102042.56;673160;29;1841;-88
2022/07/17 02:30:57;;;;;;;3.33;2.90;;;;;;;13.32;56.32;102035.53;669658;29;1298;-88
2022/07/17 02:31:18;;;;;;;3.08;2.70;;;;;;;13.33;55.83;102048.69;672150;29;1128;-88
2022/07/17 02:31:40;;;;;;;3.55;2.90;;;;;;;13.28;55.85;102040.66;669502;29;1994;-88
2022/07/17 02:32:01;;;;;;;4.50;3.20;;;;;;;13.26;56.00;102034.47;663409;29;1272;-87
2022/07/17 02:32:24;;;;;;;5.88;3.50;;;;;;;13.28;55.87;102042.41;664837;29;1288;-88
2022/07/17 02:32:45;;;;;;;4.72;3.13;;;;;;;13.23;55.90;102046.56;663874;29;1808;-87
2022/07/17 02:33:07;;;;;;;4.10;2.85;;;;;;;13.25;56.07;102040.53;672081;29;1295;-88
2022/07/17 02:33:28;;;;;;;5.30;2.83;;;;;;;13.24;55.98;102050.97;666688;29;1273;-88
2022/07/17 02:33:50;;;;;;;6.82;3.13;;;;;;;13.22;55.86;102045.66;664939;29;800;-87
2022/07/17 02:34:12;;;;;;;7.65;3.28;;;;;;;13.20;56.03;102043.84;666270;29;1252;-87
2022/07/17 02:34:34;;;;;;;5.60;3.10;;;;;;;13.20;55.88;102049.97;669236;29;1380;-88
2022/07/17 02:34:57;;;;;;;5.85;3.20;;;;;;;13.21;55.67;102045.63;666660;29;1223;-87
2022/07/17 02:35:18;;;;;;;4.55;3.10;;;;;;;13.19;55.83;102044.66;672591;29;1383;-87
2022/07/17 02:35:41;;;;;;;4.70;3.00;;;;;;;13.13;55.76;102035.75;667239;29;1581;-88
2022/07/17 02:36:03;;;;;;;5.70;3.10;;;;;;;13.15;55.78;102049.78;672246;29;1149;-88
2022/07/17 02:36:26;;;;;;;6.43;3.00;;;;;;;13.12;55.76;102039.19;669708;29;1052;-88
2022/07/17 02:36:49;;;;;;;5.90;2.70;;;;;;;13.13;56.15;102043.59;666131;29;2046;-88
2022/07/17 02:37:14;;;;;;;4.70;2.60;;;;;;;13.13;56.06;102054.09;669524;29;1907;-88
2022/07/17 02:37:42;;;;;;;5.47;2.80;;;;;;;13.11;55.97;102045.28;670533;29;1809;-87
2022/07/17 02:38:05;;;;;;;6.55;3.20;;;;;;;13.12;56.14;102048.78;669109;29;1701;-88
2022/07/17 02:38:28;;;;;;;6.40;3.30;;;;;;;13.06;55.96;102036.34;674798;29;1258;-87
2022/07/17 02:38:51;;;;;;;9.65;3.20;;;;;;;13.11;56.18;102049.63;672243;29;1034;-88
2022/07/17 02:39:13;;;;;;;8.95;2.80;;;;;;;13.08;56.27;102046.88;670674;29;1319;-88
2022/07/17 02:39:36;;;;;;;5.63;2.50;;;;;;;13.11;56.25;102047.00;666590;29;1535;-88
2022/07/17 02:39:58;;;;;;;3.15;2.60;;;;;;;13.09;56.18;102052.16;666680;29;1765;-87
2022/07/17 02:40:19;;;;;;;5.55;3.05;;;;;;;13.07;56.21;102039.84;669511;29;1121;-87
2022/07/17 02:40:41;;;;;;;6.07;3.30;;;;;;;13.08;56.39;102047.75;673539;29;1910;-87
2022/07/17 02:41:03;;;;;;;6.13;3.10;;;;;;;13.07;56.64;102045.97;669971;29;1282;-88
2022/07/17 02:41:24;;;;;;;4.90;2.90;;;;;;;13.05;56.34;102031.03;667092;29;1449;-88
2022/07/17 02:41:46;;;;;;;5.25;3.00;;;;;;;13.08;56.12;102042.53;663639;29;1552;-88
2022/07/17 02:42:07;;;;;;;4.90;3.10;;;;;;;13.07;56.17;102048.59;663746;29;1227;-88
2022/07/17 02:42:47;;;;;;;5.28;3.10;;;;;;;13.09;56.50;102049.53;664115;29;1317;-88
2022/07/17 02:43:08;;;;;;;6.38;3.00;;;;;;;13.09;56.37;102044.31;666225;29;1222;-87
2022/07/17 02:43:30;;;;;;;7.47;3.10;;;;;;;13.13;56.63;102050.56;665134;29;1172;-87
2022/07/17 02:43:51;;;;;;;6.32;3.00;;;;;;;13.09;56.65;102040.81;666161;29;1439;-88